Nuckols, Kentucky
Current Conditions -  °F | °C
As of 10:56 AM on Sunday 23 Nov 2014 (Local Time) from KOWB Reporting Station
Overcast Overcast  
Wind Chill: 56°   Ceiling: 2500
Heat Index: 56°   Visibility: 10mi
Dew Point: 52°   Wind: 9mph
Humidity: 87%   Direction: 160°SSE
Pressure: 29.73"   Gusts: NA
Location:  37.517°N, 87.0795°W
Report Text: KOWB 231656Z 16008KT 10SM OVC025 13/11 A2973 RMK AO2 T01330111 RAB43E54 P0000 SLP068
Loading
Personal Weather Stations






























Interactive Weather Map New forecast layout! Learn more

10-Day Weather Forecast

Advertisements
Track Severe Weather on mobile